sensor_id;sensor_type;location;lat;lon;timestamp;temperature;humidity
1379;DHT22;683;48.738;9.226;2023-02-28T00:01:11;-2.50;86.50
1379;DHT22;683;48.738;9.226;2023-02-28T00:03:39;-2.50;86.70
1379;DHT22;683;48.738;9.226;2023-02-28T00:06:09;-2.50;87.10
1379;DHT22;683;48.738;9.226;2023-02-28T00:08:37;-2.50;87.10
1379;DHT22;683;48.738;9.226;2023-02-28T00:11:08;-2.50;87.20
1379;DHT22;683;48.738;9.226;2023-02-28T00:13:40;-2.60;87.50
1379;DHT22;683;48.738;9.226;2023-02-28T00:16:10;-2.60;87.90
1379;DHT22;683;48.738;9.226;2023-02-28T00:18:39;-2.60;88.00
1379;DHT22;683;48.738;9.226;2023-02-28T00:21:06;-2.60;88.20
1379;DHT22;683;48.738;9.226;2023-02-28T00:23:34;-2.60;88.20
1379;DHT22;683;48.738;9.226;2023-02-28T00:26:02;-2.60;88.30
1379;DHT22;683;48.738;9.226;2023-02-28T00:28:31;-2.70;88.50
1379;DHT22;683;48.738;9.226;2023-02-28T00:31:01;-2.70;88.80
1379;DHT22;683;48.738;9.226;2023-02-28T00:33:29;-2.70;89.10
1379;DHT22;683;48.738;9.226;2023-02-28T00:36:05;-2.70;89.10
1379;DHT22;683;48.738;9.226;2023-02-28T00:38:35;-2.70;89.60
1379;DHT22;683;48.738;9.226;2023-02-28T00:41:03;-2.70;89.70
1379;DHT22;683;48.738;9.226;2023-02-28T00:43:34;-2.80;89.50
1379;DHT22;683;48.738;9.226;2023-02-28T00:46:03;-2.80;89.60
1379;DHT22;683;48.738;9.226;2023-02-28T00:48:32;-2.80;89.90
1379;DHT22;683;48.738;9.226;2023-02-28T00:50:59;-2.80;90.00
1379;DHT22;683;48.738;9.226;2023-02-28T00:53:29;-2.80;90.10
1379;DHT22;683;48.738;9.226;2023-02-28T00:55:58;-2.80;90.20
1379;DHT22;683;48.738;9.226;2023-02-28T00:58:26;-2.80;90.20
1379;DHT22;683;48.738;9.226;2023-02-28T01:00:54;-2.80;90.30
1379;DHT22;683;48.738;9.226;2023-02-28T01:03:23;-2.80;90.50
1379;DHT22;683;48.738;9.226;2023-02-28T01:05:51;-2.80;90.60
1379;DHT22;683;48.738;9.226;2023-02-28T01:08:19;-2.80;90.80
1379;DHT22;683;48.738;9.226;2023-02-28T01:10:52;-2.80;90.70
1379;DHT22;683;48.738;9.226;2023-02-28T01:13:21;-2.90;90.90
1379;DHT22;683;48.738;9.226;2023-02-28T01:15:52;-2.90;90.90
1379;DHT22;683;48.738;9.226;2023-02-28T01:18:23;-2.90;91.00
1379;DHT22;683;48.738;9.226;2023-02-28T01:20:50;-2.90;91.20
1379;DHT22;683;48.738;9.226;2023-02-28T01:23:18;-3.00;91.30
1379;DHT22;683;48.738;9.226;2023-02-28T01:25:49;-3.00;91.30
1379;DHT22;683;48.738;9.226;2023-02-28T01:28:20;-3.00;91.50
1379;DHT22;683;48.738;9.226;2023-02-28T01:30:50;-3.00;91.90
1379;DHT22;683;48.738;9.226;2023-02-28T01:33:17;-3.00;91.80
1379;DHT22;683;48.738;9.226;2023-02-28T01:35:48;-3.00;91.90
1379;DHT22;683;48.738;9.226;2023-02-28T01:38:15;-3.00;92.30
1379;DHT22;683;48.738;9.226;2023-02-28T01:40:42;-3.00;92.10
1379;DHT22;683;48.738;9.226;2023-02-28T01:43:19;-3.00;92.20
1379;DHT22;683;48.738;9.226;2023-02-28T01:45:47;-3.00;92.20
1379;DHT22;683;48.738;9.226;2023-02-28T01:48:14;-3.00;92.40
1379;DHT22;683;48.738;9.226;2023-02-28T01:50:44;-3.00;92.50
1379;DHT22;683;48.738;9.226;2023-02-28T01:53:21;-3.00;92.60
1379;DHT22;683;48.738;9.226;2023-02-28T01:55:51;-3.00;92.60
1379;DHT22;683;48.738;9.226;2023-02-28T01:58:20;-3.00;92.80
1379;DHT22;683;48.738;9.226;2023-02-28T02:00:50;-3.00;92.90
1379;DHT22;683;48.738;9.226;2023-02-28T02:03:19;-3.00;93.00
1379;DHT22;683;48.738;9.226;2023-02-28T02:05:49;-3.00;93.10
1379;DHT22;683;48.738;9.226;2023-02-28T02:08:21;-3.00;93.00
1379;DHT22;683;48.738;9.226;2023-02-28T02:10:53;-2.90;93.10
1379;DHT22;683;48.738;9.226;2023-02-28T02:13:37;-2.90;93.20
1379;DHT22;683;48.738;9.226;2023-02-28T02:16:18;-2.90;93.30
1379;DHT22;683;48.738;9.226;2023-02-28T02:18:53;-2.90;93.40
1379;DHT22;683;48.738;9.226;2023-02-28T02:24:53;-2.90;93.50
1379;DHT22;683;48.738;9.226;2023-02-28T02:27:48;-2.90;93.60
1379;DHT22;683;48.738;9.226;2023-02-28T02:30:43;-2.90;93.60
1379;DHT22;683;48.738;9.226;2023-02-28T02:33:26;-2.90;93.70
1379;DHT22;683;48.738;9.226;2023-02-28T02:36:00;-2.90;93.90
1379;DHT22;683;48.738;9.226;2023-02-28T02:38:33;-2.90;93.90
1379;DHT22;683;48.738;9.226;2023-02-28T02:41:08;-2.80;94.00
1379;DHT22;683;48.738;9.226;2023-02-28T02:43:40;-2.80;94.00
1379;DHT22;683;48.738;9.226;2023-02-28T02:46:14;-2.80;94.00
1379;DHT22;683;48.738;9.226;2023-02-28T02:48:45;-2.80;94.00
1379;DHT22;683;48.738;9.226;2023-02-28T02:51:16;-2.80;94.10
1379;DHT22;683;48.738;9.226;2023-02-28T02:53:48;-2.70;94.20
1379;DHT22;683;48.738;9.226;2023-02-28T02:56:19;-2.70;94.20
1379;DHT22;683;48.738;9.226;2023-02-28T02:58:49;-2.70;94.30
1379;DHT22;683;48.738;9.226;2023-02-28T03:01:19;-2.70;94.20
1379;DHT22;683;48.738;9.226;2023-02-28T03:03:56;-2.60;94.20
1379;DHT22;683;48.738;9.226;2023-02-28T03:06:25;-2.60;94.20
1379;DHT22;683;48.738;9.226;2023-02-28T03:08:53;-2.60;94.20
1379;DHT22;683;48.738;9.226;2023-02-28T03:11:22;-2.60;94.30
1379;DHT22;683;48.738;9.226;2023-02-28T03:13:58;-2.60;94.40
1379;DHT22;683;48.738;9.226;2023-02-28T03:16:35;-2.60;94.50
1379;DHT22;683;48.738;9.226;2023-02-28T03:19:31;-2.60;94.50
1379;DHT22;683;48.738;9.226;2023-02-28T03:22:18;-2.60;94.60
1379;DHT22;683;48.738;9.226;2023-02-28T03:24:52;-2.60;94.80
1379;DHT22;683;48.738;9.226;2023-02-28T03:27:24;-2.60;94.80
1379;DHT22;683;48.738;9.226;2023-02-28T03:29:59;-2.50;94.90
1379;DHT22;683;48.738;9.226;2023-02-28T03:32:35;-2.50;94.90
1379;DHT22;683;48.738;9.226;2023-02-28T03:35:08;-2.50;95.00
1379;DHT22;683;48.738;9.226;2023-02-28T03:37:40;-2.50;95.00
1379;DHT22;683;48.738;9.226;2023-02-28T03:40:11;-2.50;95.10
1379;DHT22;683;48.738;9.226;2023-02-28T03:42:42;-2.50;95.10
1379;DHT22;683;48.738;9.226;2023-02-28T03:45:15;-2.40;95.20
1379;DHT22;683;48.738;9.226;2023-02-28T03:47:48;-2.40;95.20
1379;DHT22;683;48.738;9.226;2023-02-28T03:50:19;-2.40;95.30
1379;DHT22;683;48.738;9.226;2023-02-28T03:52:53;-2.40;95.20
1379;DHT22;683;48.738;9.226;2023-02-28T03:55:29;-2.40;95.20
1379;DHT22;683;48.738;9.226;2023-02-28T03:58:03;-2.30;95.20
1379;DHT22;683;48.738;9.226;2023-02-28T04:00:37;-2.30;95.30
1379;DHT22;683;48.738;9.226;2023-02-28T04:03:06;-2.30;95.30
1379;DHT22;683;48.738;9.226;2023-02-28T04:05:46;-2.30;95.30
1379;DHT22;683;48.738;9.226;2023-02-28T04:08:16;-2.30;95.20
1379;DHT22;683;48.738;9.226;2023-02-28T04:10:47;-2.20;95.40
1379;DHT22;683;48.738;9.226;2023-02-28T04:13:15;-2.20;95.40
1379;DHT22;683;48.738;9.226;2023-02-28T04:15:42;-2.20;95.30
1379;DHT22;683;48.738;9.226;2023-02-28T04:18:09;-2.20;95.30
1379;DHT22;683;48.738;9.226;2023-02-28T04:20:37;-2.10;95.30
1379;DHT22;683;48.738;9.226;2023-02-28T04:23:04;-2.10;95.30
1379;DHT22;683;48.738;9.226;2023-02-28T04:25:33;-2.10;95.40
1379;DHT22;683;48.738;9.226;2023-02-28T04:28:00;-2.10;95.40
1379;DHT22;683;48.738;9.226;2023-02-28T04:30:27;-2.00;95.30
1379;DHT22;683;48.738;9.226;2023-02-28T04:32:55;-2.10;95.10
1379;DHT22;683;48.738;9.226;2023-02-28T04:35:22;-2.00;95.10
1379;DHT22;683;48.738;9.226;2023-02-28T04:37:50;-2.00;95.20
1379;DHT22;683;48.738;9.226;2023-02-28T04:40:17;-2.00;95.20
1379;DHT22;683;48.738;9.226;2023-02-28T04:42:46;-2.00;95.30
1379;DHT22;683;48.738;9.226;2023-02-28T04:45:13;-2.00;95.20
1379;DHT22;683;48.738;9.226;2023-02-28T04:47:40;-2.00;95.30
1379;DHT22;683;48.738;9.226;2023-02-28T04:50:08;-1.90;95.30
1379;DHT22;683;48.738;9.226;2023-02-28T04:52:36;-1.90;95.30
1379;DHT22;683;48.738;9.226;2023-02-28T04:55:04;-1.90;95.30
1379;DHT22;683;48.738;9.226;2023-02-28T04:57:32;-1.90;95.20
1379;DHT22;683;48.738;9.226;2023-02-28T05:00:00;-1.90;95.20
1379;DHT22;683;48.738;9.226;2023-02-28T05:02:34;-1.90;95.30
1379;DHT22;683;48.738;9.226;2023-02-28T05:05:01;-1.90;95.40
1379;DHT22;683;48.738;9.226;2023-02-28T05:07:28;-1.90;95.40
1379;DHT22;683;48.738;9.226;2023-02-28T05:09:56;-1.90;95.50
1379;DHT22;683;48.738;9.226;2023-02-28T05:12:23;-2.00;95.50
1379;DHT22;683;48.738;9.226;2023-02-28T05:14:50;-2.00;95.70
1379;DHT22;683;48.738;9.226;2023-02-28T05:17:19;-2.00;95.80
1379;DHT22;683;48.738;9.226;2023-02-28T05:19:49;-1.90;95.90
1379;DHT22;683;48.738;9.226;2023-02-28T05:22:16;-1.90;96.00
1379;DHT22;683;48.738;9.226;2023-02-28T05:24:44;-1.90;96.00
1379;DHT22;683;48.738;9.226;2023-02-28T05:27:11;-1.90;96.20
1379;DHT22;683;48.738;9.226;2023-02-28T05:29:38;-1.90;96.20
1379;DHT22;683;48.738;9.226;2023-02-28T05:32:11;-1.90;96.30
1379;DHT22;683;48.738;9.226;2023-02-28T05:34:41;-1.90;96.30
1379;DHT22;683;48.738;9.226;2023-02-28T05:37:11;-1.90;96.40
1379;DHT22;683;48.738;9.226;2023-02-28T05:39:39;-1.90;96.50
1379;DHT22;683;48.738;9.226;2023-02-28T05:42:07;-1.80;96.50
1379;DHT22;683;48.738;9.226;2023-02-28T05:44:37;-1.90;96.40
1379;DHT22;683;48.738;9.226;2023-02-28T05:47:04;-1.90;96.60
1379;DHT22;683;48.738;9.226;2023-02-28T05:49:34;-1.90;96.60
1379;DHT22;683;48.738;9.226;2023-02-28T05:52:03;-1.90;96.40
1379;DHT22;683;48.738;9.226;2023-02-28T05:54:31;-1.80;96.50
1379;DHT22;683;48.738;9.226;2023-02-28T05:57:01;-1.80;96.40
1379;DHT22;683;48.738;9.226;2023-02-28T05:59:28;-1.80;96.40
1379;DHT22;683;48.738;9.226;2023-02-28T06:01:56;-1.80;96.50
1379;DHT22;683;48.738;9.226;2023-02-28T06:04:24;-1.80;96.60
1379;DHT22;683;48.738;9.226;2023-02-28T06:06:51;-1.80;96.70
1379;DHT22;683;48.738;9.226;2023-02-28T06:09:21;-1.80;96.60
1379;DHT22;683;48.738;9.226;2023-02-28T06:11:49;-1.70;96.60
1379;DHT22;683;48.738;9.226;2023-02-28T06:14:17;-1.70;96.50
1379;DHT22;683;48.738;9.226;2023-02-28T06:16:45;-1.70;96.50
1379;DHT22;683;48.738;9.226;2023-02-28T06:19:13;-1.70;96.50
1379;DHT22;683;48.738;9.226;2023-02-28T06:21:41;-1.70;96.50
1379;DHT22;683;48.738;9.226;2023-02-28T06:24:08;-1.70;96.40
1379;DHT22;683;48.738;9.226;2023-02-28T06:26:37;-1.70;96.40
1379;DHT22;683;48.738;9.226;2023-02-28T06:29:05;-1.70;96.10
1379;DHT22;683;48.738;9.226;2023-02-28T06:31:33;-1.70;96.00
1379;DHT22;683;48.738;9.226;2023-02-28T06:34:02;-1.70;96.00
1379;DHT22;683;48.738;9.226;2023-02-28T06:36:30;-1.70;95.80
1379;DHT22;683;48.738;9.226;2023-02-28T06:38:57;-1.60;95.80
1379;DHT22;683;48.738;9.226;2023-02-28T06:41:25;-1.60;95.70
1379;DHT22;683;48.738;9.226;2023-02-28T06:43:54;-1.60;95.60
1379;DHT22;683;48.738;9.226;2023-02-28T06:46:21;-1.50;95.40
1379;DHT22;683;48.738;9.226;2023-02-28T06:48:49;-1.40;95.30
1379;DHT22;683;48.738;9.226;2023-02-28T06:51:19;-1.40;95.20
1379;DHT22;683;48.738;9.226;2023-02-28T06:53:48;-1.40;95.20
1379;DHT22;683;48.738;9.226;2023-02-28T06:56:16;-1.40;95.10
1379;DHT22;683;48.738;9.226;2023-02-28T06:58:46;-1.30;95.10
1379;DHT22;683;48.738;9.226;2023-02-28T07:01:15;-1.30;95.10
1379;DHT22;683;48.738;9.226;2023-02-28T07:03:43;-1.30;94.60
1379;DHT22;683;48.738;9.226;2023-02-28T07:06:11;-1.20;94.60
1379;DHT22;683;48.738;9.226;2023-02-28T07:08:39;-1.20;94.50
1379;DHT22;683;48.738;9.226;2023-02-28T07:11:07;-1.20;94.50
1379;DHT22;683;48.738;9.226;2023-02-28T07:13:34;-1.20;94.40
1379;DHT22;683;48.738;9.226;2023-02-28T07:16:04;-1.10;94.20
1379;DHT22;683;48.738;9.226;2023-02-28T07:18:33;-1.20;94.20
1379;DHT22;683;48.738;9.226;2023-02-28T07:21:02;-1.10;94.30
1379;DHT22;683;48.738;9.226;2023-02-28T07:23:30;-1.20;94.20
1379;DHT22;683;48.738;9.226;2023-02-28T07:25:57;-1.10;94.30
1379;DHT22;683;48.738;9.226;2023-02-28T07:28:25;-1.10;94.10
1379;DHT22;683;48.738;9.226;2023-02-28T07:30:52;-1.10;94.10
1379;DHT22;683;48.738;9.226;2023-02-28T07:33:19;-1.00;94.00
1379;DHT22;683;48.738;9.226;2023-02-28T07:35:48;-1.00;93.80
1379;DHT22;683;48.738;9.226;2023-02-28T07:38:15;-0.90;93.60
1379;DHT22;683;48.738;9.226;2023-02-28T07:40:43;-0.90;93.40
1379;DHT22;683;48.738;9.226;2023-02-28T07:43:13;-0.90;93.40
1379;DHT22;683;48.738;9.226;2023-02-28T07:45:42;-0.80;93.40
1379;DHT22;683;48.738;9.226;2023-02-28T07:48:09;-0.80;93.00
1379;DHT22;683;48.738;9.226;2023-02-28T07:50:36;-0.80;93.10
1379;DHT22;683;48.738;9.226;2023-02-28T07:53:05;-0.80;93.40
1379;DHT22;683;48.738;9.226;2023-02-28T07:55:35;-0.80;93.20
1379;DHT22;683;48.738;9.226;2023-02-28T07:58:02;-0.80;93.20
1379;DHT22;683;48.738;9.226;2023-02-28T08:00:30;-0.80;93.10
1379;DHT22;683;48.738;9.226;2023-02-28T08:02:58;-0.70;92.90
1379;DHT22;683;48.738;9.226;2023-02-28T08:05:25;-0.70;93.10
1379;DHT22;683;48.738;9.226;2023-02-28T08:07:55;-0.60;93.00
1379;DHT22;683;48.738;9.226;2023-02-28T08:10:23;-0.50;92.80
1379;DHT22;683;48.738;9.226;2023-02-28T08:12:51;-0.60;93.10
1379;DHT22;683;48.738;9.226;2023-02-28T08:15:18;-0.60;93.00
1379;DHT22;683;48.738;9.226;2023-02-28T08:17:45;-0.60;92.70
1379;DHT22;683;48.738;9.226;2023-02-28T08:20:15;-0.50;92.70
1379;DHT22;683;48.738;9.226;2023-02-28T08:22:42;-0.40;92.80
1379;DHT22;683;48.738;9.226;2023-02-28T08:25:09;-0.40;92.30
1379;DHT22;683;48.738;9.226;2023-02-28T08:27:40;-0.30;92.60
1379;DHT22;683;48.738;9.226;2023-02-28T08:30:10;-0.30;92.00
1379;DHT22;683;48.738;9.226;2023-02-28T08:32:38;-0.20;92.20
1379;DHT22;683;48.738;9.226;2023-02-28T08:35:06;-0.20;92.20
1379;DHT22;683;48.738;9.226;2023-02-28T08:37:36;-0.20;92.10
1379;DHT22;683;48.738;9.226;2023-02-28T08:40:05;-0.10;91.90
1379;DHT22;683;48.738;9.226;2023-02-28T08:42:32;-0.10;91.90
1379;DHT22;683;48.738;9.226;2023-02-28T08:45:01;-0.10;91.90
1379;DHT22;683;48.738;9.226;2023-02-28T08:47:28;-0.10;91.90
1379;DHT22;683;48.738;9.226;2023-02-28T08:49:58;0.00;91.70
1379;DHT22;683;48.738;9.226;2023-02-28T08:52:25;0.10;91.70
1379;DHT22;683;48.738;9.226;2023-02-28T08:54:57;0.10;91.60
1379;DHT22;683;48.738;9.226;2023-02-28T08:57:25;0.20;91.70
1379;DHT22;683;48.738;9.226;2023-02-28T08:59:53;0.20;91.30
1379;DHT22;683;48.738;9.226;2023-02-28T09:02:21;0.30;91.20
1379;DHT22;683;48.738;9.226;2023-02-28T09:04:49;0.30;91.10
1379;DHT22;683;48.738;9.226;2023-02-28T09:07:16;0.30;91.10
1379;DHT22;683;48.738;9.226;2023-02-28T09:09:44;0.30;91.00
1379;DHT22;683;48.738;9.226;2023-02-28T09:12:21;0.30;90.90
1379;DHT22;683;48.738;9.226;2023-02-28T09:14:48;0.30;90.90
1379;DHT22;683;48.738;9.226;2023-02-28T09:17:16;0.30;91.00
1379;DHT22;683;48.738;9.226;2023-02-28T09:19:47;0.30;91.00
1379;DHT22;683;48.738;9.226;2023-02-28T09:22:14;0.40;91.00
1379;DHT22;683;48.738;9.226;2023-02-28T09:24:43;0.50;90.70
1379;DHT22;683;48.738;9.226;2023-02-28T09:27:11;0.60;90.20
1379;DHT22;683;48.738;9.226;2023-02-28T09:29:38;0.70;90.00
1379;DHT22;683;48.738;9.226;2023-02-28T09:32:05;0.70;89.70
1379;DHT22;683;48.738;9.226;2023-02-28T09:34:33;0.80;90.00
1379;DHT22;683;48.738;9.226;2023-02-28T09:37:04;0.90;89.90
1379;DHT22;683;48.738;9.226;2023-02-28T09:39:31;1.00;89.20
1379;DHT22;683;48.738;9.226;2023-02-28T09:41:58;1.10;87.60
1379;DHT22;683;48.738;9.226;2023-02-28T09:44:33;1.10;88.00
1379;DHT22;683;48.738;9.226;2023-02-28T09:47:11;1.20;87.80
1379;DHT22;683;48.738;9.226;2023-02-28T09:49:44;1.20;86.90
1379;DHT22;683;48.738;9.226;2023-02-28T09:52:18;1.20;86.70
1379;DHT22;683;48.738;9.226;2023-02-28T09:54:46;1.20;86.90
1379;DHT22;683;48.738;9.226;2023-02-28T09:57:23;1.10;87.00
1379;DHT22;683;48.738;9.226;2023-02-28T10:00:07;1.10;86.80
1379;DHT22;683;48.738;9.226;2023-02-28T10:02:51;1.10;87.30
1379;DHT22;683;48.738;9.226;2023-02-28T10:05:23;1.20;87.10
1379;DHT22;683;48.738;9.226;2023-02-28T10:08:05;1.30;86.40
1379;DHT22;683;48.738;9.226;2023-02-28T10:10:37;1.40;86.30
1379;DHT22;683;48.738;9.226;2023-02-28T10:13:14;1.40;85.70
1379;DHT22;683;48.738;9.226;2023-02-28T10:15:44;1.50;86.10
1379;DHT22;683;48.738;9.226;2023-02-28T10:18:16;1.50;86.20
1379;DHT22;683;48.738;9.226;2023-02-28T10:20:47;1.70;85.10
1379;DHT22;683;48.738;9.226;2023-02-28T10:23:21;1.70;85.30
1379;DHT22;683;48.738;9.226;2023-02-28T10:25:54;1.70;84.50
1379;DHT22;683;48.738;9.226;2023-02-28T10:28:22;1.80;84.20
1379;DHT22;683;48.738;9.226;2023-02-28T10:30:52;1.90;83.90
1379;DHT22;683;48.738;9.226;2023-02-28T10:33:23;2.00;84.00
1379;DHT22;683;48.738;9.226;2023-02-28T10:35:52;1.90;83.20
1379;DHT22;683;48.738;9.226;2023-02-28T10:38:24;2.00;82.60
1379;DHT22;683;48.738;9.226;2023-02-28T10:40:52;2.10;83.40
1379;DHT22;683;48.738;9.226;2023-02-28T10:43:29;2.10;83.00
1379;DHT22;683;48.738;9.226;2023-02-28T10:46:02;2.20;81.80
1379;DHT22;683;48.738;9.226;2023-02-28T10:48:35;2.20;81.80
1379;DHT22;683;48.738;9.226;2023-02-28T10:51:05;2.40;81.80
1379;DHT22;683;48.738;9.226;2023-02-28T10:53:38;2.50;82.00
1379;DHT22;683;48.738;9.226;2023-02-28T10:56:17;2.70;80.90
1379;DHT22;683;48.738;9.226;2023-02-28T10:58:50;2.90;80.40
1379;DHT22;683;48.738;9.226;2023-02-28T11:01:22;3.00;80.20
1379;DHT22;683;48.738;9.226;2023-02-28T11:03:49;3.20;79.80
1379;DHT22;683;48.738;9.226;2023-02-28T11:06:19;3.20;79.60
1379;DHT22;683;48.738;9.226;2023-02-28T11:08:52;3.00;80.10
1379;DHT22;683;48.738;9.226;2023-02-28T11:11:21;3.20;79.60
1379;DHT22;683;48.738;9.226;2023-02-28T11:13:52;3.10;79.30
1379;DHT22;683;48.738;9.226;2023-02-28T11:16:32;3.30;79.00
1379;DHT22;683;48.738;9.226;2023-02-28T11:19:06;3.70;78.60
1379;DHT22;683;48.738;9.226;2023-02-28T11:21:50;3.70;78.40
1379;DHT22;683;48.738;9.226;2023-02-28T11:24:26;3.50;78.20
1379;DHT22;683;48.738;9.226;2023-02-28T11:26:54;3.30;78.30
1379;DHT22;683;48.738;9.226;2023-02-28T11:29:24;3.30;78.90
1379;DHT22;683;48.738;9.226;2023-02-28T11:32:10;3.30;78.70
1379;DHT22;683;48.738;9.226;2023-02-28T11:34:40;3.00;78.70
1379;DHT22;683;48.738;9.226;2023-02-28T11:37:12;2.90;79.90
1379;DHT22;683;48.738;9.226;2023-02-28T11:39:43;2.90;80.20
1379;DHT22;683;48.738;9.226;2023-02-28T11:42:22;3.10;80.30
1379;DHT22;683;48.738;9.226;2023-02-28T11:45:03;3.20;78.50
1379;DHT22;683;48.738;9.226;2023-02-28T11:47:42;3.10;79.20
1379;DHT22;683;48.738;9.226;2023-02-28T11:50:27;3.10;79.00
1379;DHT22;683;48.738;9.226;2023-02-28T11:53:01;3.20;79.90
1379;DHT22;683;48.738;9.226;2023-02-28T11:55:36;3.40;79.50
1379;DHT22;683;48.738;9.226;2023-02-28T11:58:17;3.40;79.20
1379;DHT22;683;48.738;9.226;2023-02-28T12:00:59;3.80;76.70
1379;DHT22;683;48.738;9.226;2023-02-28T12:03:33;4.00;76.20
1379;DHT22;683;48.738;9.226;2023-02-28T12:06:18;4.10;76.20
1379;DHT22;683;48.738;9.226;2023-02-28T12:09:03;4.10;76.50
1379;DHT22;683;48.738;9.226;2023-02-28T12:11:43;4.00;75.90
1379;DHT22;683;48.738;9.226;2023-02-28T12:17:14;3.90;76.40
1379;DHT22;683;48.738;9.226;2023-02-28T12:19:50;3.70;77.20
1379;DHT22;683;48.738;9.226;2023-02-28T12:22:31;3.90;76.60
1379;DHT22;683;48.738;9.226;2023-02-28T12:25:39;4.10;76.40
1379;DHT22;683;48.738;9.226;2023-02-28T12:28:13;4.10;76.30
1379;DHT22;683;48.738;9.226;2023-02-28T12:30:49;4.10;77.10
1379;DHT22;683;48.738;9.226;2023-02-28T12:33:22;4.20;76.40
1379;DHT22;683;48.738;9.226;2023-02-28T12:35:54;4.40;76.10
1379;DHT22;683;48.738;9.226;2023-02-28T12:38:25;4.40;76.70
1379;DHT22;683;48.738;9.226;2023-02-28T12:40:56;4.70;76.90
1379;DHT22;683;48.738;9.226;2023-02-28T12:43:30;4.70;76.40
1379;DHT22;683;48.738;9.226;2023-02-28T12:46:06;4.50;77.10
1379;DHT22;683;48.738;9.226;2023-02-28T12:48:42;4.60;76.70
1379;DHT22;683;48.738;9.226;2023-02-28T12:51:10;4.60;75.00
1379;DHT22;683;48.738;9.226;2023-02-28T12:53:49;4.80;74.50
1379;DHT22;683;48.738;9.226;2023-02-28T12:56:24;4.70;75.30
1379;DHT22;683;48.738;9.226;2023-02-28T12:59:02;4.90;75.10
1379;DHT22;683;48.738;9.226;2023-02-28T13:01:47;4.90;76.00
1379;DHT22;683;48.738;9.226;2023-02-28T13:04:57;4.80;74.70
1379;DHT22;683;48.738;9.226;2023-02-28T13:10:41;5.50;73.40
1379;DHT22;683;48.738;9.226;2023-02-28T13:13:15;5.70;72.50
1379;DHT22;683;48.738;9.226;2023-02-28T13:16:01;5.90;72.40
1379;DHT22;683;48.738;9.226;2023-02-28T13:18:35;6.10;71.30
1379;DHT22;683;48.738;9.226;2023-02-28T13:21:07;6.40;71.40
1379;DHT22;683;48.738;9.226;2023-02-28T13:23:58;7.00;68.90
1379;DHT22;683;48.738;9.226;2023-02-28T13:29:37;8.10;67.00
1379;DHT22;683;48.738;9.226;2023-02-28T13:32:33;9.10;64.70
1379;DHT22;683;48.738;9.226;2023-02-28T13:44:05;8.90;60.90
1379;DHT22;683;48.738;9.226;2023-02-28T13:49:39;9.60;60.00
1379;DHT22;683;48.738;9.226;2023-02-28T13:52:12;9.80;59.50
1379;DHT22;683;48.738;9.226;2023-02-28T13:55:12;10.80;57.50
1379;DHT22;683;48.738;9.226;2023-02-28T13:57:54;11.10;55.20
1379;DHT22;683;48.738;9.226;2023-02-28T14:00:35;11.20;54.50
1379;DHT22;683;48.738;9.226;2023-02-28T14:03:32;11.40;54.50
1379;DHT22;683;48.738;9.226;2023-02-28T14:06:28;10.90;53.60
1379;DHT22;683;48.738;9.226;2023-02-28T14:09:00;10.30;55.20
1379;DHT22;683;48.738;9.226;2023-02-28T14:11:31;9.90;56.50
1379;DHT22;683;48.738;9.226;2023-02-28T14:14:00;10.20;55.80
1379;DHT22;683;48.738;9.226;2023-02-28T14:16:37;10.90;54.40
1379;DHT22;683;48.738;9.226;2023-02-28T14:19:12;10.90;53.60
1379;DHT22;683;48.738;9.226;2023-02-28T14:21:52;10.80;54.00
1379;DHT22;683;48.738;9.226;2023-02-28T14:24:51;11.50;53.20
1379;DHT22;683;48.738;9.226;2023-02-28T14:27:35;11.90;52.50
1379;DHT22;683;48.738;9.226;2023-02-28T14:33:23;12.10;51.40
1379;DHT22;683;48.738;9.226;2023-02-28T14:36:10;12.40;51.10
1379;DHT22;683;48.738;9.226;2023-02-28T14:38:47;13.20;50.10
1379;DHT22;683;48.738;9.226;2023-02-28T14:41:20;13.10;49.60
1379;DHT22;683;48.738;9.226;2023-02-28T14:43:54;13.20;49.80
1379;DHT22;683;48.738;9.226;2023-02-28T14:46:25;13.10;48.60
1379;DHT22;683;48.738;9.226;2023-02-28T14:48:53;12.50;49.40
1379;DHT22;683;48.738;9.226;2023-02-28T14:51:24;11.60;49.60
1379;DHT22;683;48.738;9.226;2023-02-28T14:54:01;10.70;51.40
1379;DHT22;683;48.738;9.226;2023-02-28T14:56:34;9.60;53.80
1379;DHT22;683;48.738;9.226;2023-02-28T14:59:05;9.00;55.40
1379;DHT22;683;48.738;9.226;2023-02-28T15:01:33;8.40;56.60
1379;DHT22;683;48.738;9.226;2023-02-28T15:04:02;7.90;57.40
1379;DHT22;683;48.738;9.226;2023-02-28T15:06:30;7.60;58.00
1379;DHT22;683;48.738;9.226;2023-02-28T15:09:11;7.20;59.10
1379;DHT22;683;48.738;9.226;2023-02-28T15:11:40;6.80;59.70
1379;DHT22;683;48.738;9.226;2023-02-28T15:14:17;6.50;60.80
1379;DHT22;683;48.738;9.226;2023-02-28T15:16:49;6.20;61.80
1379;DHT22;683;48.738;9.226;2023-02-28T15:19:22;6.10;62.20
1379;DHT22;683;48.738;9.226;2023-02-28T15:21:55;6.00;63.10
1379;DHT22;683;48.738;9.226;2023-02-28T15:24:32;5.90;63.20
1379;DHT22;683;48.738;9.226;2023-02-28T15:27:04;5.90;63.20
1379;DHT22;683;48.738;9.226;2023-02-28T15:29:42;5.90;63.30
1379;DHT22;683;48.738;9.226;2023-02-28T15:32:23;5.80;64.30
1379;DHT22;683;48.738;9.226;2023-02-28T15:34:51;5.60;64.60
1379;DHT22;683;48.738;9.226;2023-02-28T15:37:29;5.60;65.00
1379;DHT22;683;48.738;9.226;2023-02-28T15:40:07;5.60;65.20
1379;DHT22;683;48.738;9.226;2023-02-28T15:42:34;5.60;64.90
1379;DHT22;683;48.738;9.226;2023-02-28T15:45:02;5.50;65.40
1379;DHT22;683;48.738;9.226;2023-02-28T15:47:30;5.50;65.40
1379;DHT22;683;48.738;9.226;2023-02-28T15:49:59;5.50;65.20
1379;DHT22;683;48.738;9.226;2023-02-28T15:52:29;5.30;66.10
1379;DHT22;683;48.738;9.226;2023-02-28T15:55:08;5.10;66.50
1379;DHT22;683;48.738;9.226;2023-02-28T15:57:39;5.10;67.00
1379;DHT22;683;48.738;9.226;2023-02-28T16:00:12;5.00;67.30
1379;DHT22;683;48.738;9.226;2023-02-28T16:02:40;5.00;67.50
1379;DHT22;683;48.738;9.226;2023-02-28T16:05:23;4.90;68.00
1379;DHT22;683;48.738;9.226;2023-02-28T16:07:57;4.90;68.50
1379;DHT22;683;48.738;9.226;2023-02-28T16:10:28;4.80;68.80
1379;DHT22;683;48.738;9.226;2023-02-28T16:12:56;4.70;69.00
1379;DHT22;683;48.738;9.226;2023-02-28T16:15:25;4.70;69.20
1379;DHT22;683;48.738;9.226;2023-02-28T16:17:56;4.60;69.30
1379;DHT22;683;48.738;9.226;2023-02-28T16:20:28;4.50;69.80
1379;DHT22;683;48.738;9.226;2023-02-28T16:22:56;4.40;69.80
1379;DHT22;683;48.738;9.226;2023-02-28T16:25:34;4.30;70.00
1379;DHT22;683;48.738;9.226;2023-02-28T16:28:02;4.20;70.60
1379;DHT22;683;48.738;9.226;2023-02-28T16:30:30;4.10;71.00
1379;DHT22;683;48.738;9.226;2023-02-28T16:32:58;4.10;70.80
1379;DHT22;683;48.738;9.226;2023-02-28T16:35:25;4.00;71.20
1379;DHT22;683;48.738;9.226;2023-02-28T16:37:53;3.90;71.70
1379;DHT22;683;48.738;9.226;2023-02-28T16:40:22;3.80;72.10
1379;DHT22;683;48.738;9.226;2023-02-28T16:42:55;3.70;72.00
1379;DHT22;683;48.738;9.226;2023-02-28T16:45:26;3.60;72.70
1379;DHT22;683;48.738;9.226;2023-02-28T16:47:53;3.50;72.90
1379;DHT22;683;48.738;9.226;2023-02-28T16:50:23;3.40;73.10
1379;DHT22;683;48.738;9.226;2023-02-28T16:52:51;3.30;73.20
1379;DHT22;683;48.738;9.226;2023-02-28T16:55:20;3.30;73.60
1379;DHT22;683;48.738;9.226;2023-02-28T16:57:53;3.20;73.80
1379;DHT22;683;48.738;9.226;2023-02-28T17:00:21;3.10;74.50
1379;DHT22;683;48.738;9.226;2023-02-28T17:02:49;3.00;74.70
1379;DHT22;683;48.738;9.226;2023-02-28T17:05:18;2.90;75.20
1379;DHT22;683;48.738;9.226;2023-02-28T17:07:47;2.80;75.10
1379;DHT22;683;48.738;9.226;2023-02-28T17:10:16;2.70;75.60
1379;DHT22;683;48.738;9.226;2023-02-28T17:12:44;2.60;75.90
1379;DHT22;683;48.738;9.226;2023-02-28T17:15:14;2.60;76.40
1379;DHT22;683;48.738;9.226;2023-02-28T17:17:42;2.50;76.60
1379;DHT22;683;48.738;9.226;2023-02-28T17:20:15;2.40;76.90
1379;DHT22;683;48.738;9.226;2023-02-28T17:22:42;2.40;77.20